Time;durP1;ratioP1;P1;durP2;ratioP2;P2;SDS_P1;SDS_P2;PMS_P1;PMS_P2;Temp;Humidity;BMP_temperature;BMP_pressure;BME280_temperature;BME280_humidity;BME280_pressure;Samples;Min_cycle;Max_cycle;Signal;HPM_P1;HPM_P2
2021/09/05 00:03:01;;;;;;;1.58;0.50;;;;;;;;;;10519423;28;20051;-78
2021/09/05 00:08:06;;;;;;;2.50;0.68;;;;;;;;;;10506179;28;20051;-78
2021/09/05 00:13:10;;;;;;;1.55;0.50;;;;;;;;;;10521200;28;20051;-77
2021/09/05 00:18:15;;;;;;;4.82;1.00;;;;;;;;;;10524643;28;20075;-77
2021/09/05 00:23:20;;;;;;;4.93;1.10;;;;;;;;;;10515913;28;20048;-77
2021/09/05 00:28:25;;;;;;;3.28;0.80;;;;;;;;;;10517082;28;20041;-77
2021/09/05 00:33:29;;;;;;;4.38;0.90;;;;;;;;;;10515793;28;20048;-74
2021/09/05 00:38:34;;;;;;;2.35;0.63;;;;;;;;;;10498678;28;20136;-74
2021/09/05 00:43:52;;;;;;;1.55;0.35;;;;;;;;;;10503395;28;20444;-75
2021/09/05 00:48:55;;;;;;;3.63;0.90;;;;;;;;;;10508611;28;20474;-75
2021/09/05 00:54:01;;;;;;;1.05;0.32;;;;;;;;;;10518281;28;20254;-75
2021/09/05 00:59:07;;;;;;;1.00;0.20;;;;;;;;;;10509222;28;20041;-74
2021/09/05 01:04:12;;;;;;;2.03;0.60;;;;;;;;;;10502112;28;20059;-75
2021/09/05 01:09:16;;;;;;;2.85;0.77;;;;;;;;;;10504205;28;21112;-75
2021/09/05 01:14:26;;;;;;;1.65;0.47;;;;;;;;;;10518000;28;20489;-75
2021/09/05 01:19:29;;;;;;;1.60;0.30;;;;;;;;;;10493886;28;20053;-75
2021/09/05 01:24:52;;;;;;;;;;;;;;;;;;10521322;28;20430;-75
2021/09/05 01:30:21;;;;;;;0.25;0.10;;;;;;;;;;10499914;28;19928;-76
2021/09/05 01:35:44;;;;;;;0.43;0.20;;;;;;;;;;10459793;28;20056;-75
2021/09/05 01:41:07;;;;;;;2.30;0.50;;;;;;;;;;10506582;28;20481;-75
2021/09/05 01:46:52;;;;;;;1.02;0.40;;;;;;;;;;10308224;28;20065;-75
2021/09/05 01:52:23;;;;;;;2.80;0.77;;;;;;;;;;10478631;28;20065;-75
2021/09/05 01:57:45;;;;;;;1.85;0.47;;;;;;;;;;10510817;28;20407;-75
2021/09/05 02:03:24;;;;;;;1.90;0.47;;;;;;;;;;10443209;28;20062;-76
2021/09/05 02:08:47;;;;;;;0.77;0.30;;;;;;;;;;10495503;28;20044;-77
2021/09/05 02:14:09;;;;;;;0.38;0.20;;;;;;;;;;10508459;28;20260;-76
2021/09/05 02:19:31;;;;;;;0.55;0.20;;;;;;;;;;10493489;28;20106;-77
2021/09/05 02:25:11;;;;;;;0.13;0.10;;;;;;;;;;10505255;28;20055;-77
2021/09/05 02:30:39;;;;;;;0.80;0.25;;;;;;;;;;10495223;28;20460;-77
2021/09/05 02:36:08;;;;;;;1.30;0.30;;;;;;;;;;10497629;28;20060;-77
2021/09/05 02:41:47;;;;;;;0.97;0.30;;;;;;;;;;10440278;28;20048;-77
2021/09/05 02:47:16;;;;;;;0.35;0.20;;;;;;;;;;10514997;28;20375;-76
2021/09/05 02:52:40;;;;;;;0.43;0.20;;;;;;;;;;10515847;28;20064;-76
2021/09/05 02:58:07;;;;;;;1.63;0.60;;;;;;;;;;10508811;28;20051;-76
2021/09/05 03:03:24;;;;;;;2.92;0.88;;;;;;;;;;10484818;28;20135;-76
2021/09/05 03:09:07;;;;;;;3.20;0.95;;;;;;;;;;10486955;28;20097;-77
2021/09/05 03:14:42;;;;;;;2.40;0.80;;;;;;;;;;10489546;28;20048;-77
2021/09/05 03:20:14;;;;;;;2.72;0.80;;;;;;;;;;10425600;28;20092;-76
2021/09/05 03:25:47;;;;;;;3.20;0.93;;;;;;;;;;10514017;28;20074;-77
2021/09/05 03:31:13;;;;;;;0.30;0.20;;;;;;;;;;10469051;28;20056;-78
2021/09/05 03:36:34;;;;;;;0.57;0.30;;;;;;;;;;10509444;28;20066;-77
2021/09/05 03:42:17;;;;;;;0.40;0.30;;;;;;;;;;10492466;28;20046;-76
2021/09/05 03:47:42;;;;;;;2.55;0.90;;;;;;;;;;10488748;28;20040;-78
2021/09/05 03:53:03;;;;;;;1.05;0.40;;;;;;;;;;10511886;28;20044;-77
2021/09/05 03:58:08;;;;;;;3.45;1.00;;;;;;;;;;10490720;28;20072;-77
2021/09/05 04:03:14;;;;;;;0.93;0.40;;;;;;;;;;10488348;28;20057;-77
2021/09/05 04:08:17;;;;;;;0.20;0.20;;;;;;;;;;10486774;28;20060;-78
2021/09/05 04:13:20;;;;;;;0.30;0.30;;;;;;;;;;10514056;28;20058;-78
2021/09/05 04:18:24;;;;;;;0.17;0.17;;;;;;;;;;10509586;28;20078;-77
2021/09/05 04:23:26;;;;;;;0.38;0.20;;;;;;;;;;10507936;28;20128;-77
2021/09/05 04:28:30;;;;;;;0.20;0.20;;;;;;;;;;10511403;28;20135;-78
2021/09/05 04:33:35;;;;;;;0.35;0.35;;;;;;;;;;10519651;28;20036;-79
2021/09/05 04:38:39;;;;;;;0.10;0.10;;;;;;;;;;10514755;28;20058;-79
2021/09/05 04:43:43;;;;;;;0.10;0.10;;;;;;;;;;10500691;28;20383;-77
2021/09/05 04:48:47;;;;;;;0.10;0.10;;;;;;;;;;10514850;28;20051;-79
2021/09/05 04:53:50;;;;;;;0.10;0.10;;;;;;;;;;10517976;28;20604;-78
2021/09/05 04:58:55;;;;;;;0.10;0.10;;;;;;;;;;10520383;28;20054;-79
2021/09/05 05:03:59;;;;;;;0.10;0.10;;;;;;;;;;10508820;28;20040;-78
2021/09/05 05:09:11;;;;;;;0.10;0.10;;;;;;;;;;10514074;28;20037;-78
2021/09/05 05:14:14;;;;;;;0.10;0.10;;;;;;;;;;10525186;28;20053;-77
2021/09/05 05:19:20;;;;;;;0.10;0.10;;;;;;;;;;10519441;28;20072;-79
2021/09/05 05:24:32;;;;;;;0.13;0.13;;;;;;;;;;10497785;28;20040;-82
2021/09/05 05:29:36;;;;;;;0.20;0.20;;;;;;;;;;10508546;28;20048;-85
2021/09/05 05:34:48;;;;;;;0.10;0.10;;;;;;;;;;10505524;28;20063;-81
2021/09/05 05:39:51;;;;;;;0.10;0.10;;;;;;;;;;10496323;28;20099;-81
2021/09/05 05:44:56;;;;;;;0.10;0.10;;;;;;;;;;10514335;28;20052;-83
2021/09/05 05:50:00;;;;;;;0.10;0.10;;;;;;;;;;10505720;28;20044;-82
2021/09/05 05:55:05;;;;;;;0.10;0.10;;;;;;;;;;10511005;28;20044;-79
2021/09/05 06:00:09;;;;;;;0.10;0.10;;;;;;;;;;10521950;28;20478;-83
2021/09/05 06:05:17;;;;;;;0.10;0.10;;;;;;;;;;10508838;28;20052;-81
2021/09/05 06:10:20;;;;;;;0.10;0.10;;;;;;;;;;10492556;28;20055;-79
2021/09/05 06:15:24;;;;;;;0.10;0.10;;;;;;;;;;10514815;28;20115;-80
2021/09/05 06:20:29;;;;;;;0.10;0.10;;;;;;;;;;10510648;28;20070;-81
2021/09/05 06:25:32;;;;;;;0.10;0.10;;;;;;;;;;10512039;28;20101;-78
2021/09/05 06:30:36;;;;;;;0.10;0.10;;;;;;;;;;10513307;28;20421;-81
2021/09/05 06:35:41;;;;;;;0.08;0.08;;;;;;;;;;10518088;28;20048;-82
2021/09/05 06:40:56;;;;;;;0.10;0.10;;;;;;;;;;10514051;28;20044;-83
2021/09/05 06:45:59;;;;;;;0.10;0.10;;;;;;;;;;10515212;28;20044;-84
2021/09/05 06:57:06;;;;;;;0.10;0.10;;;;;;;;;;10508786;28;20793;-83
2021/09/05 07:02:09;;;;;;;0.00;0.00;;;;;;;;;;10512422;28;20413;-80
2021/09/05 07:07:13;;;;;;;0.10;0.10;;;;;;;;;;10488929;28;20060;-82
2021/09/05 07:12:17;;;;;;;0.10;0.10;;;;;;;;;;10491734;28;20105;-77
2021/09/05 07:17:21;;;;;;;0.00;0.00;;;;;;;;;;10502999;28;20052;-77
2021/09/05 07:22:24;;;;;;;0.10;0.10;;;;;;;;;;10495985;28;20072;-76
2021/09/05 07:27:29;;;;;;;0.10;0.10;;;;;;;;;;10497414;28;20094;-76
2021/09/05 07:32:34;;;;;;;0.00;0.00;;;;;;;;;;10493269;28;20079;-76
2021/09/05 07:37:37;;;;;;;0.00;0.00;;;;;;;;;;10513807;28;20052;-76
2021/09/05 07:42:42;;;;;;;0.00;0.00;;;;;;;;;;10512299;28;20048;-75
2021/09/05 07:47:45;;;;;;;0.03;0.03;;;;;;;;;;10486881;28;20144;-77
2021/09/05 07:52:49;;;;;;;0.10;0.10;;;;;;;;;;10505131;28;20115;-76
2021/09/05 07:57:53;;;;;;;0.00;0.00;;;;;;;;;;10482774;28;20052;-76
2021/09/05 08:02:56;;;;;;;0.03;0.03;;;;;;;;;;10519485;28;20402;-77
2021/09/05 08:08:01;;;;;;;0.00;0.00;;;;;;;;;;10497911;28;20130;-78
2021/09/05 08:13:06;;;;;;;0.10;0.10;;;;;;;;;;10496183;28;20055;-78
2021/09/05 08:18:11;;;;;;;0.00;0.00;;;;;;;;;;10504019;28;20498;-77
2021/09/05 08:23:13;;;;;;;0.00;0.00;;;;;;;;;;10517767;28;20036;-77
2021/09/05 08:28:17;;;;;;;0.00;0.00;;;;;;;;;;10497087;28;20054;-77
2021/09/05 08:33:20;;;;;;;0.00;0.00;;;;;;;;;;10512424;28;20398;-78
2021/09/05 08:38:25;;;;;;;0.00;0.00;;;;;;;;;;10521102;28;20047;-77
2021/09/05 08:43:30;;;;;;;0.00;0.00;;;;;;;;;;10517302;28;20040;-76
2021/09/05 08:48:39;;;;;;;0.00;0.00;;;;;;;;;;10518922;28;20048;-75
2021/09/05 08:53:42;;;;;;;0.10;0.10;;;;;;;;;;10492030;28;20203;-77
2021/09/05 08:58:46;;;;;;;0.10;0.10;;;;;;;;;;10515187;28;20094;-77
2021/09/05 09:03:49;;;;;;;0.10;0.10;;;;;;;;;;10514975;28;20127;-78
2021/09/05 09:08:56;;;;;;;0.03;0.03;;;;;;;;;;10524589;28;20055;-77
2021/09/05 09:14:00;;;;;;;0.00;0.00;;;;;;;;;;10495168;28;20049;-78
2021/09/05 09:19:04;;;;;;;0.00;0.00;;;;;;;;;;10510490;28;20070;-77
2021/09/05 09:24:10;;;;;;;0.00;0.00;;;;;;;;;;10522692;28;20056;-76
2021/09/05 09:29:17;;;;;;;0.00;0.00;;;;;;;;;;10495237;28;20150;-75
2021/09/05 09:34:21;;;;;;;0.22;0.00;;;;;;;;;;10512783;28;20047;-78
2021/09/05 09:39:24;;;;;;;0.00;0.00;;;;;;;;;;10523741;28;20044;-78
2021/09/05 09:44:30;;;;;;;0.00;0.00;;;;;;;;;;10491424;28;20465;-78
2021/09/05 09:49:46;;;;;;;0.03;0.00;;;;;;;;;;10502106;28;20047;-79
2021/09/05 09:54:49;;;;;;;0.00;0.00;;;;;;;;;;10489376;28;20139;-77
2021/09/05 09:59:54;;;;;;;0.00;0.00;;;;;;;;;;10491134;28;20104;-77
2021/09/05 10:04:58;;;;;;;0.00;0.00;;;;;;;;;;10513214;28;20036;-79
2021/09/05 10:10:03;;;;;;;0.00;0.00;;;;;;;;;;10512439;28;20058;-80
2021/09/05 10:15:10;;;;;;;0.10;0.10;;;;;;;;;;10492206;28;20083;-79
2021/09/05 10:20:13;;;;;;;0.00;0.00;;;;;;;;;;10511592;28;20114;-79
2021/09/05 10:25:18;;;;;;;0.00;0.00;;;;;;;;;;10517209;28;20421;-78
2021/09/05 10:30:26;;;;;;;0.00;0.00;;;;;;;;;;10515738;28;20048;-81
2021/09/05 10:35:47;;;;;;;0.00;0.00;;;;;;;;;;10505503;28;20059;-79
2021/09/05 10:40:53;;;;;;;0.00;0.00;;;;;;;;;;10510689;28;20051;-80
2021/09/05 10:46:00;;;;;;;0.00;0.00;;;;;;;;;;10508871;28;20403;-84
2021/09/05 10:51:13;;;;;;;0.00;0.00;;;;;;;;;;10516917;28;20916;-80
2021/09/05 10:56:18;;;;;;;0.00;0.00;;;;;;;;;;10495913;28;20098;-80
2021/09/05 11:01:26;;;;;;;0.00;0.00;;;;;;;;;;10516740;28;20066;-79
2021/09/05 11:06:35;;;;;;;0.00;0.00;;;;;;;;;;10503523;28;20096;-78
2021/09/05 11:11:57;;;;;;;0.00;0.00;;;;;;;;;;10502127;28;20053;-77
2021/09/05 11:17:10;;;;;;;0.00;0.00;;;;;;;;;;10519003;28;20051;-73
2021/09/05 11:22:19;;;;;;;0.00;0.00;;;;;;;;;;10517418;28;20074;-73
2021/09/05 11:27:25;;;;;;;0.00;0.00;;;;;;;;;;10517493;28;20048;-72
2021/09/05 11:32:29;;;;;;;0.00;0.00;;;;;;;;;;10505529;28;20051;-73
2021/09/05 11:37:36;;;;;;;0.00;0.00;;;;;;;;;;10495296;28;20044;-73
2021/09/05 11:42:45;;;;;;;0.00;0.00;;;;;;;;;;10522151;28;20118;-72
2021/09/05 11:48:02;;;;;;;0.00;0.00;;;;;;;;;;10519118;28;20028;-72
2021/09/05 11:53:08;;;;;;;0.00;0.00;;;;;;;;;;10513679;28;20036;-72
2021/09/05 11:58:16;;;;;;;0.00;0.00;;;;;;;;;;10499513;28;20478;-71
2021/09/05 12:03:26;;;;;;;0.00;0.00;;;;;;;;;;10517796;28;20040;-72
2021/09/05 12:08:33;;;;;;;0.00;0.00;;;;;;;;;;10498833;28;20044;-72
2021/09/05 12:13:49;;;;;;;0.00;0.00;;;;;;;;;;10501616;28;20051;-72
2021/09/05 12:19:01;;;;;;;0.03;0.03;;;;;;;;;;10497597;28;20075;-72
2021/09/05 12:24:20;;;;;;;0.00;0.00;;;;;;;;;;10514728;28;20060;-72
2021/09/05 12:29:33;;;;;;;0.00;0.00;;;;;;;;;;10510006;28;20044;-72
2021/09/05 12:34:44;;;;;;;0.00;0.00;;;;;;;;;;10512710;28;20036;-72
2021/09/05 12:39:52;;;;;;;0.00;0.00;;;;;;;;;;10510552;28;20064;-73
2021/09/05 12:45:03;;;;;;;0.00;0.00;;;;;;;;;;10514127;28;20065;-72
2021/09/05 12:50:08;;;;;;;0.00;0.00;;;;;;;;;;10516795;28;20509;-73
2021/09/05 12:55:16;;;;;;;0.03;0.00;;;;;;;;;;10514223;28;20060;-72
2021/09/05 13:00:21;;;;;;;0.00;0.00;;;;;;;;;;10492000;28;20036;-77
2021/09/05 13:05:27;;;;;;;0.00;0.00;;;;;;;;;;10506116;28;20129;-77
2021/09/05 13:10:35;;;;;;;0.00;0.00;;;;;;;;;;10520839;28;20050;-77
2021/09/05 13:15:39;;;;;;;0.00;0.00;;;;;;;;;;10512573;28;20767;-76
2021/09/05 13:20:45;;;;;;;0.00;0.00;;;;;;;;;;10526143;28;20055;-74
2021/09/05 13:26:00;;;;;;;0.00;0.00;;;;;;;;;;10505301;28;20432;-73
2021/09/05 13:31:09;;;;;;;0.00;0.00;;;;;;;;;;10514000;28;20051;-75
2021/09/05 13:36:15;;;;;;;0.00;0.00;;;;;;;;;;10510525;28;20044;-75
2021/09/05 13:41:24;;;;;;;0.00;0.00;;;;;;;;;;10518443;28;20097;-74
2021/09/05 13:46:29;;;;;;;0.00;0.00;;;;;;;;;;10520733;28;20445;-75
2021/09/05 13:51:35;;;;;;;0.00;0.00;;;;;;;;;;10511769;28;20514;-75
2021/09/05 13:56:44;;;;;;;0.75;0.00;;;;;;;;;;10513123;28;20078;-77
2021/09/05 14:01:50;;;;;;;0.00;0.00;;;;;;;;;;10497075;28;20056;-77
2021/09/05 14:06:54;;;;;;;0.00;0.00;;;;;;;;;;10492794;28;20083;-75
2021/09/05 14:11:57;;;;;;;0.00;0.00;;;;;;;;;;10510449;28;20056;-74
2021/09/05 14:17:02;;;;;;;0.00;0.00;;;;;;;;;;10497015;28;20412;-76
2021/09/05 14:22:09;;;;;;;0.00;0.00;;;;;;;;;;10514801;28;20048;-74
2021/09/05 14:27:16;;;;;;;0.00;0.00;;;;;;;;;;10515008;28;20094;-74
2021/09/05 14:32:25;;;;;;;0.00;0.00;;;;;;;;;;10504081;28;20079;-74
2021/09/05 14:37:57;;;;;;;0.00;0.00;;;;;;;;;;10526947;28;20037;-74
2021/09/05 14:48:33;;;;;;;0.00;0.00;;;;;;;;;;10522669;28;20044;-74
2021/09/05 14:59:06;;;;;;;;;;;;;;;;;;10513931;28;20093;-75
2021/09/05 15:04:32;;;;;;;0.00;0.00;;;;;;;;;;10517260;28;19920;-75
2021/09/05 15:15:00;;;;;;;0.00;0.00;;;;;;;;;;10515467;28;20473;-74
2021/09/05 15:20:07;;;;;;;0.00;0.00;;;;;;;;;;10498129;28;20452;-76
2021/09/05 15:25:14;;;;;;;0.00;0.00;;;;;;;;;;10513694;28;20107;-75
2021/09/05 15:30:28;;;;;;;0.00;0.00;;;;;;;;;;10506884;28;20516;-75
2021/09/05 15:52:07;;;;;;;0.00;0.00;;;;;;;;;;10673109;27;20496;-71
2021/09/05 15:57:12;;;;;;;0.00;0.00;;;;;;;;;;10670865;27;20129;-67
2021/09/05 16:02:18;;;;;;;0.00;0.00;;;;;;;;;;10671351;27;20038;-69
2021/09/05 16:18:09;;;;;;;0.00;0.00;;;;;;;;;;10672635;27;20410;-68
2021/09/05 16:23:12;;;;;;;0.00;0.00;;;;;;;;;;10669858;27;20454;-70
2021/09/05 16:28:20;;;;;;;0.00;0.00;;;;;;;;;;10674766;27;20050;-71
2021/09/05 16:33:33;;;;;;;0.00;0.00;;;;;;;;;;10669322;27;20427;-69
2021/09/05 16:44:00;;;;;;;0.00;0.00;;;;;;;;;;10663389;27;20054;-68
2021/09/05 16:49:03;;;;;;;0.10;0.10;;;;;;;;;;10663893;27;20049;-69
2021/09/05 16:54:06;;;;;;;0.00;0.00;;;;;;;;;;10626838;27;20043;-74
2021/09/05 16:59:11;;;;;;;0.00;0.00;;;;;;;;;;10623606;27;20039;-68
2021/09/05 17:04:17;;;;;;;0.00;0.00;;;;;;;;;;10633096;27;20134;-69
2021/09/05 17:09:21;;;;;;;0.00;0.00;;;;;;;;;;10650154;27;20846;-73
2021/09/05 17:14:26;;;;;;;0.00;0.00;;;;;;;;;;10650548;27;20054;-73
2021/09/05 17:19:31;;;;;;;0.00;0.00;;;;;;;;;;10643011;27;20863;-71
2021/09/05 17:24:35;;;;;;;0.00;0.00;;;;;;;;;;10625483;27;20034;-71
2021/09/05 17:29:39;;;;;;;0.00;0.00;;;;;;;;;;10577561;27;20521;-71
2021/09/05 17:34:43;;;;;;;0.00;0.00;;;;;;;;;;10538513;28;20787;-67
2021/09/05 17:39:47;;;;;;;0.00;0.00;;;;;;;;;;10552309;28;20073;-71
2021/09/05 17:44:53;;;;;;;0.00;0.00;;;;;;;;;;10553859;28;20139;-71
2021/09/05 17:49:57;;;;;;;0.43;0.10;;;;;;;;;;10551617;27;20027;-70
2021/09/05 17:55:01;;;;;;;0.00;0.00;;;;;;;;;;10541099;28;20058;-68
2021/09/05 18:00:12;;;;;;;0.00;0.00;;;;;;;;;;10556086;28;20171;-68
2021/09/05 18:05:16;;;;;;;0.00;0.00;;;;;;;;;;10555526;27;20040;-69
2021/09/05 18:10:20;;;;;;;0.00;0.00;;;;;;;;;;10550936;28;20185;-69
2021/09/05 18:15:26;;;;;;;0.10;0.10;;;;;;;;;;10550003;28;20817;-68
2021/09/05 18:20:31;;;;;;;0.00;0.00;;;;;;;;;;10550818;28;20528;-68
2021/09/05 18:25:34;;;;;;;0.00;0.00;;;;;;;;;;10543788;27;20133;-69
2021/09/05 18:30:40;;;;;;;0.00;0.00;;;;;;;;;;10551118;27;20117;-67
2021/09/05 18:35:44;;;;;;;0.00;0.00;;;;;;;;;;10551577;28;20085;-71
2021/09/05 18:40:49;;;;;;;0.00;0.00;;;;;;;;;;10553757;28;20040;-71
2021/09/05 18:45:56;;;;;;;0.00;0.00;;;;;;;;;;10536308;28;20047;-69
2021/09/05 18:50:59;;;;;;;0.00;0.00;;;;;;;;;;10547841;28;20079;-69
2021/09/05 18:56:03;;;;;;;0.00;0.00;;;;;;;;;;10554970;28;20047;-71
2021/09/05 19:01:10;;;;;;;0.00;0.00;;;;;;;;;;10559294;27;20044;-69
2021/09/05 19:06:15;;;;;;;0.00;0.00;;;;;;;;;;10552187;28;20130;-70
2021/09/05 19:11:18;;;;;;;0.10;0.10;;;;;;;;;;10558360;28;20040;-68
2021/09/05 19:16:28;;;;;;;0.00;0.00;;;;;;;;;;10560949;28;20130;-66
2021/09/05 19:21:32;;;;;;;0.00;0.00;;;;;;;;;;10557364;28;20040;-69
2021/09/05 19:26:36;;;;;;;0.00;0.00;;;;;;;;;;10536940;28;20101;-69
2021/09/05 19:31:43;;;;;;;0.10;0.10;;;;;;;;;;10558865;28;20051;-68
2021/09/05 19:36:48;;;;;;;0.00;0.00;;;;;;;;;;10558010;28;20133;-70
2021/09/05 19:41:53;;;;;;;0.10;0.10;;;;;;;;;;10559149;28;20031;-69
2021/09/05 19:46:58;;;;;;;0.00;0.00;;;;;;;;;;10559826;28;20051;-67
2021/09/05 19:52:02;;;;;;;0.00;0.00;;;;;;;;;;10558054;28;20063;-68
2021/09/05 19:57:08;;;;;;;0.00;0.00;;;;;;;;;;10556352;28;20405;-66
2021/09/05 20:08:49;;;;;;;0.00;0.00;;;;;;;;;;10561365;28;20130;-67
2021/09/05 20:13:53;;;;;;;0.00;0.00;;;;;;;;;;10561109;28;20047;-65
2021/09/05 20:18:57;;;;;;;0.00;0.00;;;;;;;;;;10561382;28;20047;-65
2021/09/05 20:24:02;;;;;;;0.03;0.03;;;;;;;;;;10563165;28;20502;-66
2021/09/05 20:29:05;;;;;;;0.10;0.00;;;;;;;;;;10565113;28;20112;-66
2021/09/05 20:34:09;;;;;;;0.10;0.10;;;;;;;;;;10571480;28;20163;-67
2021/09/05 20:39:29;;;;;;;0.10;0.10;;;;;;;;;;10570730;28;20075;-67
2021/09/05 20:44:34;;;;;;;0.00;0.00;;;;;;;;;;10569940;28;20043;-67
2021/09/05 20:49:37;;;;;;;0.10;0.10;;;;;;;;;;10572087;28;20044;-67
2021/09/05 20:54:41;;;;;;;0.10;0.10;;;;;;;;;;10567887;27;20062;-68
2021/09/05 20:59:45;;;;;;;0.10;0.10;;;;;;;;;;10555691;27;20047;-69
2021/09/05 21:04:49;;;;;;;0.10;0.10;;;;;;;;;;10556105;28;20062;-67
2021/09/05 21:10:00;;;;;;;0.05;0.05;;;;;;;;;;10572994;28;20091;-67
2021/09/05 21:15:05;;;;;;;0.00;0.00;;;;;;;;;;10568352;28;20108;-68
2021/09/05 21:20:09;;;;;;;0.00;0.00;;;;;;;;;;10568486;28;20031;-69
2021/09/05 21:25:13;;;;;;;0.00;0.00;;;;;;;;;;10567024;28;20035;-69
2021/09/05 21:30:16;;;;;;;0.10;0.10;;;;;;;;;;10567146;28;20075;-70
2021/09/05 21:35:20;;;;;;;0.00;0.00;;;;;;;;;;10567090;28;20138;-69
2021/09/05 21:40:25;;;;;;;0.10;0.10;;;;;;;;;;10566823;28;20492;-69
2021/09/05 21:45:29;;;;;;;0.10;0.10;;;;;;;;;;10567611;27;20048;-69
2021/09/05 21:50:32;;;;;;;0.03;0.03;;;;;;;;;;10568032;28;20519;-69
2021/09/05 21:55:36;;;;;;;0.30;0.25;;;;;;;;;;10569146;28;20537;-69
2021/09/05 22:00:41;;;;;;;0.10;0.10;;;;;;;;;;10576735;27;20397;-69
2021/09/05 22:05:44;;;;;;;0.08;0.08;;;;;;;;;;10566345;28;20070;-69
2021/09/05 22:10:50;;;;;;;0.10;0.10;;;;;;;;;;10566725;28;20042;-68
2021/09/05 22:15:53;;;;;;;0.10;0.10;;;;;;;;;;10566412;28;20105;-69
2021/09/05 22:20:56;;;;;;;0.10;0.10;;;;;;;;;;10558232;27;20036;-69
2021/09/05 22:26:03;;;;;;;0.10;0.10;;;;;;;;;;10569062;28;20032;-69
2021/09/05 22:31:06;;;;;;;0.10;0.10;;;;;;;;;;10568195;28;20034;-68
2021/09/05 22:36:08;;;;;;;0.10;0.10;;;;;;;;;;10567190;28;20050;-68
2021/09/05 22:41:14;;;;;;;0.00;0.00;;;;;;;;;;10528776;28;20067;-69
2021/09/05 22:46:18;;;;;;;0.10;0.10;;;;;;;;;;10525370;28;20036;-68
2021/09/05 22:51:25;;;;;;;0.10;0.10;;;;;;;;;;10528317;28;20427;-68
2021/09/05 22:56:29;;;;;;;0.65;0.30;;;;;;;;;;10530925;28;20125;-68
2021/09/05 23:01:33;;;;;;;2.17;0.80;;;;;;;;;;10529501;28;20040;-68
2021/09/05 23:06:36;;;;;;;2.35;0.90;;;;;;;;;;10524037;28;20040;-68
2021/09/05 23:11:44;;;;;;;1.05;0.30;;;;;;;;;;10524876;28;20131;-68
2021/09/05 23:16:51;;;;;;;0.73;0.30;;;;;;;;;;10527450;28;20063;-68
2021/09/05 23:22:03;;;;;;;2.58;0.50;;;;;;;;;;10526867;28;20044;-68
2021/09/05 23:27:11;;;;;;;2.05;0.68;;;;;;;;;;10522586;28;20032;-68
2021/09/05 23:32:15;;;;;;;2.30;0.70;;;;;;;;;;10527321;28;20050;-68
2021/09/05 23:37:18;;;;;;;4.50;1.30;;;;;;;;;;10529210;28;20531;-68
2021/09/05 23:42:22;;;;;;;2.13;0.40;;;;;;;;;;10560885;28;20036;-68
2021/09/05 23:47:25;;;;;;;2.65;0.65;;;;;;;;;;10564981;28;20044;-68
2021/09/05 23:52:28;;;;;;;1.50;0.50;;;;;;;;;;10564205;28;20044;-68
2021/09/05 23:57:34;;;;;;;2.17;0.68;;;;;;;;;;10560878;28;20039;-68
